SBOSBO KRK / EPKK
Speedbird OnlineSpeedbird Online KRK / EPKK

Kraków John Paul II International Airport
13:28 25.3°C

Location Krakow, Poland
Latitude: 50.077702
Longitude: 19.7848
Local Time 13:28 on 17 Jun 2024
UTC +2 hours (Europe/Warsaw)
Currency £1 equals PLN 5.19
METAR EPKK 171100Z VRB03KT 9999 FEW053 25/11 Q1016
TAF TAF EPKK 170830Z 1709/1809 22004KT CAVOK
Weather As Of 17 Jun 2024 13:28
Description Few clouds
Wind 6 km/h from North (0°)
Cloud Cover 20%
Precipitation Rain: none, Snow: none
Sunrise 04:30
Sunset 20:53
NOTAM 25 active NOTAM
Rotations During the last 90 days there were
63 flights from LHR
63 flights to LHR
Lounges Business Lounge Schengen, Terminal 1
Web Airport Website | Wikipedia
Codes IATA: KRK
ICAO: EPKK
Altitude 241 Meter / 791 Feet
Distance 1,387 KM / 862 Miles
from London.
Runways
RunwayLength (m)Surface
072550Concrete
252550Concrete
Radio
TypeDescriptionFrequency
APPKRAKOW APP121.075
ATISATIS126.125
DIRKRAKOW DIRECTOR123.8
TWRKRAKOW DELIVERY118.1
TWRKRAKOW TWR123.25
Live ATC



Support Speedbird Online

© 2017-2024 Speedbird Online